createdAt,value
2022-09-10T00:06:45.864Z,15.30
2022-09-10T00:09:13.418Z,15.20
2022-09-10T00:11:41.610Z,15.20
2022-09-10T00:14:12.258Z,15.20
2022-09-10T00:16:38.819Z,15.30
2022-09-10T00:19:06.530Z,15.30
2022-09-10T00:21:33.524Z,15.30
2022-09-10T00:24:02.069Z,15.20
2022-09-10T00:26:34.435Z,15.20
2022-09-10T00:29:01.411Z,15.20
2022-09-10T00:31:30.337Z,15.20
2022-09-10T00:33:59.078Z,15.20
2022-09-10T00:36:28.404Z,15.20
2022-09-10T00:38:58.145Z,15.00
2022-09-10T00:41:25.833Z,15.20
2022-09-10T00:43:55.550Z,15.20
2022-09-10T00:46:43.960Z,15.20
2022-09-10T00:49:23.366Z,15.20
2022-09-10T00:51:52.485Z,15.40
2022-09-10T00:54:21.877Z,15.30
2022-09-10T00:56:49.790Z,15.30
2022-09-10T00:59:20.215Z,15.40
2022-09-10T01:01:48.197Z,17.20
2022-09-10T01:04:15.665Z,15.30
2022-09-10T01:06:45.409Z,15.30
2022-09-10T01:09:15.985Z,15.10
2022-09-10T01:11:56.181Z,15.30
2022-09-10T01:14:51.600Z,15.30
2022-09-10T01:17:36.647Z,15.30
2022-09-10T01:20:34.964Z,15.30
2022-09-10T01:23:18.044Z,15.30
2022-09-10T01:26:03.361Z,15.50
2022-09-10T01:28:54.315Z,15.30
2022-09-10T01:31:27.819Z,15.30
2022-09-10T01:34:02.151Z,15.40
2022-09-10T01:36:33.745Z,15.60
2022-09-10T01:39:02.011Z,15.40
2022-09-10T01:41:28.638Z,15.30
2022-09-10T01:43:55.961Z,15.40
2022-09-10T01:46:51.653Z,15.30
2022-09-10T01:49:38.222Z,14.60
2022-09-10T01:52:35.465Z,15.40
2022-09-10T01:55:13.722Z,15.40
2022-09-10T01:58:12.870Z,15.40
2022-09-10T02:00:43.956Z,15.40
2022-09-10T02:03:16.030Z,15.50
2022-09-10T02:05:44.986Z,15.50
2022-09-10T02:08:16.648Z,15.50
2022-09-10T02:11:01.507Z,15.30
2022-09-10T02:13:45.041Z,15.60
2022-09-10T02:16:18.034Z,15.40
2022-09-10T02:18:44.721Z,15.50
2022-09-10T02:21:12.391Z,17.60
2022-09-10T02:23:48.849Z,15.60
2022-09-10T02:26:15.865Z,15.50
2022-09-10T02:28:43.734Z,15.60
2022-09-10T02:36:04.939Z,15.60
2022-09-10T02:40:59.298Z,15.60
2022-09-10T02:43:27.211Z,15.70
2022-09-10T02:45:58.172Z,15.70
2022-09-10T02:48:30.978Z,15.70
2022-09-10T02:50:58.034Z,15.80
2022-09-10T02:53:25.966Z,15.70
2022-09-10T02:55:54.293Z,15.80
2022-09-10T02:58:20.875Z,15.70
2022-09-10T03:10:38.416Z,15.70
2022-09-10T03:13:04.980Z,15.60
2022-09-10T03:25:19.801Z,15.50
2022-09-10T03:44:56.597Z,15.40
2022-09-10T03:49:50.714Z,15.30
2022-09-10T03:52:18.056Z,15.30
2022-09-10T03:54:45.472Z,15.30
2022-09-10T03:59:41.082Z,15.40
2022-09-10T04:04:37.299Z,15.40
2022-09-10T04:07:04.504Z,15.40
2022-09-10T04:09:32.400Z,15.40
2022-09-10T04:11:59.531Z,15.40
2022-09-10T04:14:26.929Z,15.40
2022-09-10T04:19:20.875Z,15.20
2022-09-10T04:21:48.317Z,15.30
2022-09-10T04:29:08.865Z,15.30
2022-09-10T04:31:35.551Z,15.30
2022-09-10T04:48:45.702Z,15.30
2022-09-10T04:51:17.416Z,15.30
2022-09-10T04:53:45.167Z,15.30
2022-09-10T04:56:11.746Z,15.30
2022-09-10T04:58:39.290Z,15.20
2022-09-10T05:01:06.889Z,15.20
2022-09-10T05:03:33.768Z,15.30
2022-09-10T05:06:00.285Z,15.30
2022-09-10T05:08:26.849Z,15.30
2022-09-10T05:10:53.379Z,15.40
2022-09-10T05:13:19.884Z,15.30
2022-09-10T05:20:43.599Z,15.30
2022-09-10T05:23:10.146Z,15.30
2022-09-10T05:25:37.554Z,15.30
2022-09-10T05:28:05.605Z,15.30
2022-09-10T05:30:32.593Z,15.20
2022-09-10T05:33:02.018Z,15.20
2022-09-10T05:35:30.203Z,15.10
2022-09-10T05:37:57.464Z,15.20
2022-09-10T05:40:25.242Z,15.30
2022-09-10T05:45:20.203Z,15.40
2022-09-10T05:47:47.266Z,15.50
2022-09-10T06:00:06.842Z,15.70
2022-09-10T06:05:00.685Z,15.80
2022-09-10T06:07:28.631Z,15.80
2022-09-10T06:14:49.669Z,15.80
2022-09-10T06:17:19.780Z,15.80
2022-09-10T06:19:46.989Z,15.80
2022-09-10T06:22:14.436Z,15.90
2022-09-10T06:29:36.621Z,15.90
2022-09-10T06:32:03.668Z,15.90
2022-09-10T06:34:30.209Z,15.80
2022-09-10T06:47:25.822Z,16.00
2022-09-10T06:52:03.255Z,16.00
2022-09-10T07:04:18.716Z,16.10
2022-09-10T07:06:46.538Z,16.20
2022-09-10T07:09:13.577Z,16.10
2022-09-10T07:11:41.811Z,16.10
2022-09-10T07:14:12.855Z,16.10
2022-09-10T07:16:44.512Z,16.20
2022-09-10T07:19:15.302Z,16.30
2022-09-10T07:21:41.860Z,16.30
2022-09-10T07:24:10.654Z,16.30
2022-09-10T07:26:37.217Z,16.30
2022-09-10T07:29:04.365Z,16.40
2022-09-10T07:31:33.880Z,16.40
2022-09-10T07:34:03.856Z,16.40
2022-09-10T07:36:31.411Z,16.50
2022-09-10T07:39:01.342Z,16.50
2022-09-10T07:41:29.820Z,16.50
2022-09-10T07:43:57.289Z,16.50
2022-09-10T07:46:25.109Z,16.40
2022-09-10T07:48:59.584Z,16.40
2022-09-10T07:51:28.544Z,16.50
2022-09-10T07:53:57.052Z,16.50
2022-09-10T07:56:24.319Z,16.40
2022-09-10T07:58:52.285Z,16.50
2022-09-10T08:03:46.746Z,16.50
2022-09-10T08:06:13.600Z,16.50
2022-09-10T08:08:40.558Z,16.50
2022-09-10T08:11:13.581Z,16.40
2022-09-10T08:13:41.711Z,16.50
2022-09-10T08:16:10.696Z,16.50
2022-09-10T08:18:37.619Z,16.50
2022-09-10T08:21:05.642Z,16.50
2022-09-10T08:23:32.633Z,16.50
2022-09-10T08:25:59.331Z,16.50
2022-09-10T08:28:27.193Z,16.60
2022-09-10T08:31:07.576Z,16.60
2022-09-10T08:33:35.195Z,16.70
2022-09-10T08:36:02.973Z,16.70
2022-09-10T08:38:32.284Z,16.70
2022-09-10T08:41:00.419Z,16.60
2022-09-10T08:43:35.111Z,16.70
2022-09-10T08:46:10.233Z,16.70
2022-09-10T08:48:39.650Z,16.70
2022-09-10T08:51:15.824Z,16.80
2022-09-10T08:53:59.297Z,16.90
2022-09-10T08:56:27.749Z,17.00
2022-09-10T08:59:22.237Z,17.10
2022-09-10T09:01:59.222Z,17.10
2022-09-10T09:04:49.645Z,17.10
2022-09-10T09:07:19.830Z,17.20
2022-09-10T09:09:51.446Z,17.30
2022-09-10T09:12:32.184Z,17.40
2022-09-10T09:15:26.217Z,17.40
2022-09-10T09:18:23.649Z,17.50
2022-09-10T09:21:00.189Z,17.70
2022-09-10T09:24:11.614Z,17.70
2022-09-10T09:26:38.023Z,17.70
2022-09-10T09:29:13.444Z,17.80
2022-09-10T09:31:48.942Z,17.80
2022-09-10T09:34:16.969Z,17.90
2022-09-10T09:36:48.570Z,18.00
2022-09-10T09:39:25.718Z,19.50
2022-09-10T09:42:19.531Z,18.10
2022-09-10T09:44:52.768Z,18.10
2022-09-10T09:47:22.635Z,18.10
2022-09-10T09:49:49.657Z,18.10
2022-09-10T09:52:20.846Z,18.10
2022-09-10T09:55:14.258Z,18.20
2022-09-10T09:57:42.598Z,18.20
2022-09-10T10:00:35.950Z,18.30
2022-09-10T10:03:35.367Z,18.40
2022-09-10T10:06:09.820Z,18.40
2022-09-10T10:08:52.113Z,18.50
2022-09-10T10:11:21.699Z,18.50
2022-09-10T10:13:52.943Z,18.60
2022-09-10T10:21:34.391Z,18.90
2022-09-10T10:26:33.522Z,18.90
2022-09-10T10:29:17.295Z,18.90
2022-09-10T10:31:46.825Z,19.00
2022-09-10T10:34:41.149Z,18.90
2022-09-10T10:37:15.955Z,18.90
2022-09-10T10:40:01.003Z,18.90
2022-09-10T10:42:51.868Z,18.90
2022-09-10T10:45:49.087Z,18.80
2022-09-10T10:48:28.295Z,18.60
2022-09-10T10:51:28.525Z,18.30
2022-09-10T10:54:21.379Z,18.10
2022-09-10T10:56:59.855Z,17.90
2022-09-10T10:59:33.398Z,17.70
2022-09-10T11:02:17.722Z,17.70
2022-09-10T11:04:46.609Z,17.80
2022-09-10T11:07:39.330Z,17.80
2022-09-10T11:10:39.326Z,17.80
2022-09-10T11:13:31.832Z,17.80
2022-09-10T11:16:09.577Z,17.80
2022-09-10T11:19:01.503Z,17.90
2022-09-10T11:21:29.705Z,18.00
2022-09-10T11:24:29.956Z,18.10
2022-09-10T11:27:08.937Z,18.10
2022-09-10T11:29:54.772Z,18.10
2022-09-10T11:32:45.852Z,18.30
2022-09-10T11:35:33.435Z,18.30
2022-09-10T11:38:27.476Z,18.30
2022-09-10T11:41:17.138Z,18.40
2022-09-10T11:43:48.582Z,18.50
2022-09-10T11:46:25.261Z,18.50
2022-09-10T11:49:06.168Z,18.50
2022-09-10T11:51:40.974Z,18.50
2022-09-10T11:54:17.114Z,18.40
2022-09-10T11:59:31.564Z,18.30
2022-09-10T12:02:13.833Z,18.30
2022-09-10T12:04:55.473Z,18.40
2022-09-10T12:07:46.906Z,18.50
2022-09-10T12:10:28.031Z,18.60
2022-09-10T12:15:27.242Z,18.60
2022-09-10T12:18:14.286Z,18.70
2022-09-10T12:20:57.921Z,18.70
2022-09-10T12:23:39.722Z,18.80
2022-09-10T12:26:17.869Z,18.80
2022-09-10T12:28:53.550Z,18.80
2022-09-10T12:31:22.049Z,18.70
2022-09-10T12:36:26.660Z,18.70
2022-09-10T12:39:21.038Z,18.80
2022-09-10T12:41:47.521Z,18.80
2022-09-10T12:44:36.078Z,18.80
2022-09-10T12:47:17.986Z,18.80
2022-09-10T12:49:48.456Z,18.80
2022-09-10T12:52:45.617Z,18.80
2022-09-10T12:55:38.152Z,18.80
2022-09-10T12:58:23.991Z,18.80
2022-09-10T13:01:10.970Z,20.40
2022-09-10T13:06:07.053Z,18.80
2022-09-10T13:08:43.864Z,18.80
2022-09-10T13:11:19.355Z,18.80
2022-09-10T13:13:48.945Z,18.80
2022-09-10T13:16:27.895Z,18.80
2022-09-10T13:19:14.394Z,18.80
2022-09-10T13:21:40.927Z,18.80
2022-09-10T13:24:38.500Z,18.80
2022-09-10T13:27:17.262Z,18.80
2022-09-10T13:29:51.920Z,18.80
2022-09-10T13:32:29.817Z,18.70
2022-09-10T13:35:17.225Z,18.70
2022-09-10T13:40:34.634Z,18.70
2022-09-10T13:43:12.167Z,18.60
2022-09-10T13:45:49.500Z,18.60
2022-09-10T13:48:43.397Z,18.60
2022-09-10T13:51:36.626Z,18.60
2022-09-10T13:54:31.304Z,18.70
2022-09-10T13:57:04.336Z,18.70
2022-09-10T13:59:33.967Z,18.80
2022-09-10T14:04:35.630Z,18.80
2022-09-10T14:07:16.875Z,18.90
2022-09-10T14:09:47.546Z,18.90
2022-09-10T14:12:17.445Z,19.00
2022-09-10T14:14:49.896Z,18.90
2022-09-10T14:17:30.077Z,19.00
2022-09-10T14:20:01.348Z,19.00
2022-09-10T14:22:29.446Z,18.80
2022-09-10T14:24:59.727Z,19.00
2022-09-10T14:27:37.510Z,18.80
2022-09-10T14:30:26.411Z,19.00
2022-09-10T14:32:53.352Z,19.00
2022-09-10T14:35:43.127Z,19.00
2022-09-10T14:38:35.386Z,19.00
2022-09-10T14:41:08.813Z,19.00
2022-09-10T14:43:40.387Z,19.00
2022-09-10T14:46:09.041Z,19.00
2022-09-10T14:51:18.036Z,18.80
2022-09-10T14:53:49.436Z,18.50
2022-09-10T14:56:36.262Z,18.10
2022-09-10T14:59:10.223Z,17.40
2022-09-10T15:01:36.901Z,17.10
2022-09-10T15:04:04.268Z,16.90
2022-09-10T15:06:31.555Z,16.90
2022-09-10T15:11:27.897Z,16.90
2022-09-10T15:18:50.056Z,16.90
2022-09-10T15:26:15.615Z,17.00
2022-09-10T15:33:37.810Z,16.90
2022-09-10T15:36:04.747Z,16.80
2022-09-10T15:41:13.468Z,16.70
2022-09-10T15:43:45.027Z,16.70
2022-09-10T15:46:14.001Z,16.70
2022-09-10T15:51:14.784Z,16.60
2022-09-10T15:53:42.857Z,16.60
2022-09-10T15:56:11.682Z,16.60
2022-09-10T15:58:39.103Z,16.70
2022-09-10T16:01:08.142Z,16.70
2022-09-10T16:06:07.162Z,16.60
2022-09-10T16:11:11.767Z,16.60
2022-09-10T16:13:39.743Z,16.60
2022-09-10T16:16:09.960Z,16.60
2022-09-10T16:18:37.378Z,16.60
2022-09-10T16:21:26.164Z,16.60
2022-09-10T16:23:55.326Z,16.60
2022-09-10T16:26:24.962Z,16.60
2022-09-10T16:28:53.192Z,16.50
2022-09-10T16:31:25.365Z,16.60
2022-09-10T16:33:55.082Z,16.60
2022-09-10T16:36:23.460Z,16.50
2022-09-10T16:38:55.418Z,16.60
2022-09-10T16:41:23.241Z,16.50
2022-09-10T16:48:44.939Z,16.70
2022-09-10T16:51:17.057Z,16.70
2022-09-10T16:53:45.426Z,16.70
2022-09-10T16:56:13.917Z,16.70
2022-09-10T16:58:41.489Z,16.70
2022-09-10T17:01:09.357Z,16.70
2022-09-10T17:03:39.878Z,16.80
2022-09-10T17:08:34.474Z,16.70
2022-09-10T17:13:28.916Z,16.80
2022-09-10T17:16:16.940Z,16.70
2022-09-10T17:18:44.808Z,16.70
2022-09-10T17:21:11.705Z,16.60
2022-09-10T17:26:09.639Z,16.50
2022-09-10T17:28:36.824Z,16.50
2022-09-10T17:33:30.970Z,16.50
2022-09-10T17:36:00.360Z,16.50
2022-09-10T17:38:28.762Z,16.60
2022-09-10T17:41:01.369Z,16.60
2022-09-10T17:43:29.946Z,16.50
2022-09-10T17:48:28.123Z,16.50
2022-09-10T17:50:55.060Z,16.50
2022-09-10T17:58:16.457Z,16.40
2022-09-10T18:00:48.636Z,16.40
2022-09-10T18:03:17.579Z,16.40
2022-09-10T18:05:45.895Z,16.40
2022-09-10T18:08:13.219Z,16.40
2022-09-10T18:15:42.033Z,16.40
2022-09-10T18:18:09.587Z,16.50
2022-09-10T18:20:36.233Z,16.50
2022-09-10T18:23:02.883Z,16.50
2022-09-10T18:25:30.429Z,16.70
2022-09-10T18:27:57.840Z,16.50
2022-09-10T18:30:26.472Z,16.50
2022-09-10T18:32:53.337Z,16.60
2022-09-10T18:35:20.634Z,16.60
2022-09-10T18:37:49.991Z,16.60
2022-09-10T18:42:46.754Z,16.50
2022-09-10T18:45:14.033Z,16.50
2022-09-10T18:55:07.032Z,16.50
2022-09-10T18:57:33.545Z,16.50
2022-09-10T19:05:10.810Z,16.50
2022-09-10T19:10:07.015Z,16.50
2022-09-10T19:12:34.134Z,16.50
2022-09-10T19:17:27.600Z,16.50
2022-09-10T19:19:54.107Z,16.50
2022-09-10T19:24:55.752Z,16.60
2022-09-10T19:27:24.064Z,16.50
2022-09-10T19:32:19.735Z,16.50
2022-09-10T19:34:49.092Z,16.50
2022-09-10T19:37:15.667Z,16.40
2022-09-10T20:01:50.476Z,16.50
2022-09-10T20:09:12.623Z,16.50
2022-09-10T20:14:13.061Z,16.50
2022-09-10T20:16:42.766Z,16.50
2022-09-10T20:19:12.117Z,16.50
2022-09-10T20:24:07.193Z,16.50
2022-09-10T20:26:38.045Z,16.50
2022-09-10T20:29:07.558Z,16.60
2022-09-10T20:31:36.471Z,16.70
2022-09-10T20:34:05.361Z,16.60
2022-09-10T20:36:33.120Z,16.60
2022-09-10T20:41:30.700Z,16.60
2022-09-10T20:43:59.553Z,16.60
2022-09-10T20:46:28.199Z,16.50
2022-09-10T20:49:02.559Z,16.50
2022-09-10T20:51:31.134Z,16.50
2022-09-10T20:53:58.015Z,16.50
2022-09-10T21:01:22.139Z,16.30
2022-09-10T21:03:51.296Z,16.30
2022-09-10T21:06:19.519Z,16.40
2022-09-10T21:08:47.618Z,16.30
2022-09-10T21:11:17.232Z,16.30
2022-09-10T21:13:50.292Z,16.40
2022-09-10T21:16:19.501Z,16.40
2022-09-10T21:18:53.588Z,16.30
2022-09-10T21:21:23.324Z,16.30
2022-09-10T21:23:52.418Z,16.30
2022-09-10T21:26:21.798Z,16.30
2022-09-10T21:28:50.944Z,16.30
2022-09-10T21:33:45.158Z,16.20
2022-09-10T21:36:14.637Z,16.10
2022-09-10T21:41:13.339Z,16.60
2022-09-10T21:43:43.571Z,16.10
2022-09-10T21:46:11.314Z,16.00
2022-09-10T21:51:11.071Z,16.00
2022-09-10T21:56:05.392Z,15.90
2022-09-10T21:58:35.559Z,15.90
2022-09-10T22:01:03.150Z,15.80
2022-09-10T22:03:32.017Z,15.80
2022-09-10T22:06:13.078Z,15.80
2022-09-10T22:08:42.746Z,15.80
2022-09-10T22:11:15.284Z,15.80
2022-09-10T22:13:43.109Z,15.70
2022-09-10T22:16:12.130Z,15.80
2022-09-10T22:18:40.005Z,15.80
2022-09-10T22:21:07.466Z,15.80
2022-09-10T22:23:36.827Z,15.80
2022-09-10T22:26:12.388Z,15.80
2022-09-10T22:28:39.390Z,15.80
2022-09-10T22:31:11.634Z,15.80
2022-09-10T22:36:19.490Z,15.80
2022-09-10T22:38:56.063Z,15.80
2022-09-10T22:41:23.114Z,15.80
2022-09-10T22:43:50.293Z,15.70
2022-09-10T22:46:18.173Z,15.60
2022-09-10T22:48:45.447Z,15.60
2022-09-10T22:51:14.971Z,15.60
2022-09-10T22:53:42.887Z,15.60
2022-09-10T22:56:11.525Z,15.70
2022-09-10T23:01:08.174Z,15.70
2022-09-10T23:06:05.965Z,15.60
2022-09-10T23:08:34.060Z,15.60
2022-09-10T23:11:19.237Z,15.60
2022-09-10T23:13:48.204Z,15.60
2022-09-10T23:16:23.691Z,15.60
2022-09-10T23:18:55.032Z,15.60
2022-09-10T23:21:25.734Z,15.60
2022-09-10T23:24:04.230Z,15.60
2022-09-10T23:26:31.690Z,15.60
2022-09-10T23:31:29.110Z,15.60
2022-09-10T23:33:59.046Z,15.50
2022-09-10T23:36:27.460Z,15.50
2022-09-10T23:43:48.096Z,15.40
2022-09-10T23:46:14.694Z,15.40
2022-09-10T23:51:11.975Z,15.30
2022-09-10T23:53:39.377Z,15.40
2022-09-10T23:58:33.088Z,15.40
